sensor_id;sensor_type;location;lat;lon;timestamp;P1;durP1;ratioP1;P2;durP2;ratioP2
64598;SDS011;51008;51.504;11.548;2023-10-09T00:01:37;6.78;;;2.92;;
64598;SDS011;51008;51.504;11.548;2023-10-09T00:06:38;7.07;;;3.15;;
64598;SDS011;51008;51.504;11.548;2023-10-09T00:11:39;8.20;;;3.45;;
64598;SDS011;51008;51.504;11.548;2023-10-09T00:16:40;4.85;;;2.80;;
64598;SDS011;51008;51.504;11.548;2023-10-09T00:21:41;8.30;;;3.22;;
64598;SDS011;51008;51.504;11.548;2023-10-09T00:26:45;6.63;;;2.97;;
64598;SDS011;51008;51.504;11.548;2023-10-09T00:31:53;6.38;;;3.22;;
64598;SDS011;51008;51.504;11.548;2023-10-09T00:36:55;9.73;;;3.75;;
64598;SDS011;51008;51.504;11.548;2023-10-09T00:41:58;6.03;;;3.40;;
64598;SDS011;51008;51.504;11.548;2023-10-09T00:46:59;6.45;;;3.45;;
64598;SDS011;51008;51.504;11.548;2023-10-09T00:52:00;9.30;;;3.85;;
64598;SDS011;51008;51.504;11.548;2023-10-09T00:57:01;7.75;;;3.20;;
64598;SDS011;51008;51.504;11.548;2023-10-09T01:02:02;7.25;;;3.30;;
64598;SDS011;51008;51.504;11.548;2023-10-09T01:07:03;6.35;;;3.25;;
64598;SDS011;51008;51.504;11.548;2023-10-09T01:12:06;7.55;;;3.20;;
64598;SDS011;51008;51.504;11.548;2023-10-09T01:17:07;9.25;;;3.60;;
64598;SDS011;51008;51.504;11.548;2023-10-09T01:22:08;6.57;;;3.35;;
64598;SDS011;51008;51.504;11.548;2023-10-09T01:27:09;7.90;;;3.60;;
64598;SDS011;51008;51.504;11.548;2023-10-09T01:32:10;6.97;;;3.63;;
64598;SDS011;51008;51.504;11.548;2023-10-09T01:37:12;9.15;;;3.88;;
64598;SDS011;51008;51.504;11.548;2023-10-09T01:42:14;8.13;;;3.65;;
64598;SDS011;51008;51.504;11.548;2023-10-09T01:47:16;7.93;;;3.85;;
64598;SDS011;51008;51.504;11.548;2023-10-09T01:52:16;8.48;;;3.80;;
64598;SDS011;51008;51.504;11.548;2023-10-09T01:57:18;8.95;;;4.03;;
64598;SDS011;51008;51.504;11.548;2023-10-09T02:02:20;8.15;;;3.40;;
64598;SDS011;51008;51.504;11.548;2023-10-09T02:07:21;9.05;;;3.08;;
64598;SDS011;51008;51.504;11.548;2023-10-09T02:12:22;6.28;;;2.70;;
64598;SDS011;51008;51.504;11.548;2023-10-09T02:17:23;8.18;;;2.67;;
64598;SDS011;51008;51.504;11.548;2023-10-09T02:22:24;7.95;;;3.03;;
64598;SDS011;51008;51.504;11.548;2023-10-09T02:27:25;6.95;;;3.05;;
64598;SDS011;51008;51.504;11.548;2023-10-09T02:32:26;5.97;;;2.55;;
64598;SDS011;51008;51.504;11.548;2023-10-09T02:37:27;6.03;;;3.10;;
64598;SDS011;51008;51.504;11.548;2023-10-09T02:42:28;7.63;;;2.88;;
64598;SDS011;51008;51.504;11.548;2023-10-09T02:47:29;6.10;;;2.63;;
64598;SDS011;51008;51.504;11.548;2023-10-09T02:52:30;6.30;;;2.50;;
64598;SDS011;51008;51.504;11.548;2023-10-09T02:57:31;6.75;;;2.97;;
64598;SDS011;51008;51.504;11.548;2023-10-09T03:02:32;6.90;;;3.05;;
64598;SDS011;51008;51.504;11.548;2023-10-09T03:07:34;5.60;;;2.83;;
64598;SDS011;51008;51.504;11.548;2023-10-09T03:12:35;7.35;;;3.20;;
64598;SDS011;51008;51.504;11.548;2023-10-09T03:17:36;8.18;;;3.35;;
64598;SDS011;51008;51.504;11.548;2023-10-09T03:22:38;7.65;;;3.53;;
64598;SDS011;51008;51.504;11.548;2023-10-09T03:27:42;7.75;;;3.75;;
64598;SDS011;51008;51.504;11.548;2023-10-09T03:32:44;6.97;;;3.67;;
64598;SDS011;51008;51.504;11.548;2023-10-09T03:37:45;6.50;;;4.22;;
64598;SDS011;51008;51.504;11.548;2023-10-09T03:42:46;8.57;;;4.43;;
64598;SDS011;51008;51.504;11.548;2023-10-09T03:47:47;10.30;;;4.43;;
64598;SDS011;51008;51.504;11.548;2023-10-09T03:52:48;8.60;;;4.45;;
64598;SDS011;51008;51.504;11.548;2023-10-09T03:57:49;11.32;;;4.38;;
64598;SDS011;51008;51.504;11.548;2023-10-09T04:02:50;8.55;;;4.78;;
64598;SDS011;51008;51.504;11.548;2023-10-09T04:07:51;10.85;;;5.32;;
64598;SDS011;51008;51.504;11.548;2023-10-09T04:12:52;10.27;;;5.40;;
64598;SDS011;51008;51.504;11.548;2023-10-09T04:17:53;8.57;;;5.38;;
64598;SDS011;51008;51.504;11.548;2023-10-09T04:22:54;11.65;;;5.63;;
64598;SDS011;51008;51.504;11.548;2023-10-09T04:27:56;10.38;;;5.82;;
64598;SDS011;51008;51.504;11.548;2023-10-09T04:33:00;11.27;;;5.93;;
64598;SDS011;51008;51.504;11.548;2023-10-09T04:38:01;12.65;;;5.32;;
64598;SDS011;51008;51.504;11.548;2023-10-09T04:43:03;12.50;;;5.75;;
64598;SDS011;51008;51.504;11.548;2023-10-09T04:48:04;11.70;;;5.70;;
64598;SDS011;51008;51.504;11.548;2023-10-09T04:53:05;11.68;;;5.88;;
64598;SDS011;51008;51.504;11.548;2023-10-09T04:58:06;10.18;;;5.60;;
64598;SDS011;51008;51.504;11.548;2023-10-09T05:03:07;10.40;;;6.03;;
64598;SDS011;51008;51.504;11.548;2023-10-09T05:08:09;10.32;;;6.00;;
64598;SDS011;51008;51.504;11.548;2023-10-09T05:13:11;11.82;;;5.95;;
64598;SDS011;51008;51.504;11.548;2023-10-09T05:18:12;16.55;;;5.93;;
64598;SDS011;51008;51.504;11.548;2023-10-09T05:23:13;10.40;;;5.72;;
64598;SDS011;51008;51.504;11.548;2023-10-09T05:28:14;13.18;;;5.70;;
64598;SDS011;51008;51.504;11.548;2023-10-09T05:33:15;14.88;;;5.90;;
64598;SDS011;51008;51.504;11.548;2023-10-09T05:38:16;12.40;;;5.60;;
64598;SDS011;51008;51.504;11.548;2023-10-09T05:43:17;13.98;;;5.60;;
64598;SDS011;51008;51.504;11.548;2023-10-09T05:48:18;13.18;;;5.70;;
64598;SDS011;51008;51.504;11.548;2023-10-09T05:53:19;11.57;;;5.68;;
64598;SDS011;51008;51.504;11.548;2023-10-09T05:58:20;15.77;;;6.78;;
64598;SDS011;51008;51.504;11.548;2023-10-09T06:03:21;17.35;;;7.63;;
64598;SDS011;51008;51.504;11.548;2023-10-09T06:08:25;23.60;;;7.97;;
64598;SDS011;51008;51.504;11.548;2023-10-09T06:13:28;23.77;;;9.88;;
64598;SDS011;51008;51.504;11.548;2023-10-09T06:18:28;25.42;;;9.80;;
64598;SDS011;51008;51.504;11.548;2023-10-09T06:23:29;23.73;;;9.35;;
64598;SDS011;51008;51.504;11.548;2023-10-09T06:28:30;21.42;;;8.98;;
64598;SDS011;51008;51.504;11.548;2023-10-09T06:33:31;27.85;;;8.40;;
64598;SDS011;51008;51.504;11.548;2023-10-09T06:38:32;16.80;;;7.78;;
64598;SDS011;51008;51.504;11.548;2023-10-09T06:43:33;18.20;;;7.80;;
64598;SDS011;51008;51.504;11.548;2023-10-09T06:48:35;22.08;;;8.48;;
64598;SDS011;51008;51.504;11.548;2023-10-09T06:53:36;16.92;;;7.95;;
64598;SDS011;51008;51.504;11.548;2023-10-09T06:58:37;15.93;;;7.40;;
64598;SDS011;51008;51.504;11.548;2023-10-09T07:03:38;15.18;;;7.00;;
64598;SDS011;51008;51.504;11.548;2023-10-09T07:08:39;14.32;;;7.03;;
64598;SDS011;51008;51.504;11.548;2023-10-09T07:13:40;15.02;;;6.95;;
64598;SDS011;51008;51.504;11.548;2023-10-09T07:18:41;17.40;;;7.57;;
64598;SDS011;51008;51.504;11.548;2023-10-09T07:23:42;19.80;;;8.27;;
64598;SDS011;51008;51.504;11.548;2023-10-09T07:28:45;20.08;;;7.60;;
64598;SDS011;51008;51.504;11.548;2023-10-09T07:33:46;17.48;;;7.65;;
64598;SDS011;51008;51.504;11.548;2023-10-09T07:38:47;19.25;;;8.52;;
64598;SDS011;51008;51.504;11.548;2023-10-09T07:43:48;25.00;;;8.68;;
64598;SDS011;51008;51.504;11.548;2023-10-09T07:48:49;17.88;;;8.02;;
64598;SDS011;51008;51.504;11.548;2023-10-09T07:53:50;14.93;;;7.25;;
64598;SDS011;51008;51.504;11.548;2023-10-09T07:58:51;17.02;;;8.23;;
64598;SDS011;51008;51.504;11.548;2023-10-09T08:03:52;16.20;;;8.00;;
64598;SDS011;51008;51.504;11.548;2023-10-09T08:08:53;14.77;;;7.30;;
64598;SDS011;51008;51.504;11.548;2023-10-09T08:13:55;21.75;;;8.20;;
64598;SDS011;51008;51.504;11.548;2023-10-09T08:18:56;20.52;;;8.98;;
64598;SDS011;51008;51.504;11.548;2023-10-09T08:23:57;19.45;;;8.55;;
64598;SDS011;51008;51.504;11.548;2023-10-09T08:28:58;19.70;;;8.73;;
64598;SDS011;51008;51.504;11.548;2023-10-09T08:33:59;19.67;;;9.70;;
64598;SDS011;51008;51.504;11.548;2023-10-09T08:44:04;19.60;;;10.27;;
64598;SDS011;51008;51.504;11.548;2023-10-09T08:49:06;24.38;;;11.35;;
64598;SDS011;51008;51.504;11.548;2023-10-09T08:54:07;24.10;;;11.20;;
64598;SDS011;51008;51.504;11.548;2023-10-09T08:59:08;34.05;;;12.50;;
64598;SDS011;51008;51.504;11.548;2023-10-09T09:04:09;28.05;;;11.10;;
64598;SDS011;51008;51.504;11.548;2023-10-09T09:09:11;27.00;;;11.25;;
64598;SDS011;51008;51.504;11.548;2023-10-09T09:14:12;25.67;;;12.00;;
64598;SDS011;51008;51.504;11.548;2023-10-09T09:19:14;31.80;;;14.18;;
64598;SDS011;51008;51.504;11.548;2023-10-09T09:24:16;24.60;;;12.05;;
64598;SDS011;51008;51.504;11.548;2023-10-09T09:29:18;27.60;;;13.47;;
64598;SDS011;51008;51.504;11.548;2023-10-09T09:34:19;27.23;;;13.40;;
64598;SDS011;51008;51.504;11.548;2023-10-09T09:39:21;30.15;;;14.65;;
64598;SDS011;51008;51.504;11.548;2023-10-09T09:44:26;32.28;;;15.25;;
64598;SDS011;51008;51.504;11.548;2023-10-09T09:49:28;27.25;;;14.50;;
64598;SDS011;51008;51.504;11.548;2023-10-09T09:54:29;33.45;;;14.85;;
64598;SDS011;51008;51.504;11.548;2023-10-09T09:59:30;31.02;;;14.48;;
64598;SDS011;51008;51.504;11.548;2023-10-09T10:04:31;37.22;;;15.95;;
64598;SDS011;51008;51.504;11.548;2023-10-09T10:09:39;34.08;;;14.90;;
64598;SDS011;51008;51.504;11.548;2023-10-09T10:14:54;32.53;;;15.75;;
64598;SDS011;51008;51.504;11.548;2023-10-09T10:20:03;33.17;;;14.88;;
64598;SDS011;51008;51.504;11.548;2023-10-09T10:25:05;33.05;;;15.20;;
64598;SDS011;51008;51.504;11.548;2023-10-09T10:35:11;34.92;;;15.80;;
64598;SDS011;51008;51.504;11.548;2023-10-09T10:40:12;28.70;;;14.38;;
64598;SDS011;51008;51.504;11.548;2023-10-09T10:45:17;29.63;;;14.85;;
64598;SDS011;51008;51.504;11.548;2023-10-09T10:50:18;29.50;;;14.18;;
64598;SDS011;51008;51.504;11.548;2023-10-09T10:55:20;30.35;;;14.50;;
64598;SDS011;51008;51.504;11.548;2023-10-09T11:00:21;26.77;;;13.73;;
64598;SDS011;51008;51.504;11.548;2023-10-09T11:05:25;30.02;;;14.25;;
64598;SDS011;51008;51.504;11.548;2023-10-09T11:10:26;25.98;;;13.05;;
64598;SDS011;51008;51.504;11.548;2023-10-09T11:15:31;30.05;;;13.95;;
64598;SDS011;51008;51.504;11.548;2023-10-09T11:20:43;28.73;;;14.23;;
64598;SDS011;51008;51.504;11.548;2023-10-09T11:25:45;28.70;;;15.30;;
64598;SDS011;51008;51.504;11.548;2023-10-09T11:30:47;29.80;;;13.07;;
64598;SDS011;51008;51.504;11.548;2023-10-09T11:35:54;32.25;;;14.98;;
64598;SDS011;51008;51.504;11.548;2023-10-09T11:40:56;26.30;;;14.23;;
64598;SDS011;51008;51.504;11.548;2023-10-09T11:46:07;35.75;;;15.07;;
64598;SDS011;51008;51.504;11.548;2023-10-09T11:51:14;31.60;;;14.88;;
64598;SDS011;51008;51.504;11.548;2023-10-09T11:56:15;26.40;;;14.43;;
64598;SDS011;51008;51.504;11.548;2023-10-09T12:01:17;29.83;;;14.13;;
64598;SDS011;51008;51.504;11.548;2023-10-09T12:06:18;33.22;;;15.18;;
64598;SDS011;51008;51.504;11.548;2023-10-09T12:11:21;31.33;;;14.77;;
64598;SDS011;51008;51.504;11.548;2023-10-09T12:16:22;28.90;;;14.95;;
64598;SDS011;51008;51.504;11.548;2023-10-09T12:21:23;26.08;;;12.95;;
64598;SDS011;51008;51.504;11.548;2023-10-09T12:26:25;27.65;;;13.82;;
64598;SDS011;51008;51.504;11.548;2023-10-09T12:31:26;26.23;;;14.40;;
64598;SDS011;51008;51.504;11.548;2023-10-09T12:36:27;31.30;;;15.15;;
64598;SDS011;51008;51.504;11.548;2023-10-09T12:41:28;30.17;;;14.55;;
64598;SDS011;51008;51.504;11.548;2023-10-09T12:46:29;30.85;;;14.40;;
64598;SDS011;51008;51.504;11.548;2023-10-09T12:51:30;25.20;;;12.90;;
64598;SDS011;51008;51.504;11.548;2023-10-09T12:56:31;27.25;;;12.30;;
64598;SDS011;51008;51.504;11.548;2023-10-09T13:01:32;20.08;;;11.13;;
64598;SDS011;51008;51.504;11.548;2023-10-09T13:06:33;22.27;;;10.63;;
64598;SDS011;51008;51.504;11.548;2023-10-09T13:11:34;21.02;;;10.77;;
64598;SDS011;51008;51.504;11.548;2023-10-09T13:16:35;26.70;;;11.82;;
64598;SDS011;51008;51.504;11.548;2023-10-09T13:21:36;24.55;;;12.25;;
64598;SDS011;51008;51.504;11.548;2023-10-09T13:26:47;26.55;;;13.20;;
64598;SDS011;51008;51.504;11.548;2023-10-09T13:31:48;21.40;;;11.65;;
64598;SDS011;51008;51.504;11.548;2023-10-09T13:36:49;28.65;;;12.30;;
64598;SDS011;51008;51.504;11.548;2023-10-09T13:41:51;21.30;;;11.07;;
64598;SDS011;51008;51.504;11.548;2023-10-09T13:51:59;27.33;;;12.15;;
64598;SDS011;51008;51.504;11.548;2023-10-09T13:57:04;25.15;;;12.50;;
64598;SDS011;51008;51.504;11.548;2023-10-09T14:02:06;23.58;;;12.38;;
64598;SDS011;51008;51.504;11.548;2023-10-09T14:07:07;25.30;;;12.55;;
64598;SDS011;51008;51.504;11.548;2023-10-09T14:12:08;23.73;;;11.40;;
64598;SDS011;51008;51.504;11.548;2023-10-09T14:17:09;17.88;;;10.18;;
64598;SDS011;51008;51.504;11.548;2023-10-09T14:22:10;22.60;;;11.13;;
64598;SDS011;51008;51.504;11.548;2023-10-09T14:27:12;21.25;;;11.10;;
64598;SDS011;51008;51.504;11.548;2023-10-09T14:32:16;23.67;;;11.60;;
64598;SDS011;51008;51.504;11.548;2023-10-09T14:37:17;22.13;;;11.50;;
64598;SDS011;51008;51.504;11.548;2023-10-09T14:42:19;25.55;;;12.18;;
64598;SDS011;51008;51.504;11.548;2023-10-09T14:47:20;22.17;;;11.98;;
64598;SDS011;51008;51.504;11.548;2023-10-09T14:52:21;23.58;;;12.13;;
64598;SDS011;51008;51.504;11.548;2023-10-09T14:57:22;23.23;;;11.45;;
64598;SDS011;51008;51.504;11.548;2023-10-09T15:02:23;23.50;;;12.15;;
64598;SDS011;51008;51.504;11.548;2023-10-09T15:07:24;22.02;;;11.07;;
64598;SDS011;51008;51.504;11.548;2023-10-09T15:12:25;24.38;;;11.85;;
64598;SDS011;51008;51.504;11.548;2023-10-09T15:17:26;22.40;;;12.27;;
64598;SDS011;51008;51.504;11.548;2023-10-09T15:22:27;23.23;;;11.48;;
64598;SDS011;51008;51.504;11.548;2023-10-09T15:27:28;24.42;;;11.30;;
64598;SDS011;51008;51.504;11.548;2023-10-09T15:32:29;21.88;;;12.10;;
64598;SDS011;51008;51.504;11.548;2023-10-09T15:37:30;20.02;;;11.43;;
64598;SDS011;51008;51.504;11.548;2023-10-09T15:42:31;22.48;;;10.88;;
64598;SDS011;51008;51.504;11.548;2023-10-09T15:47:32;22.40;;;11.27;;
64598;SDS011;51008;51.504;11.548;2023-10-09T15:52:33;19.27;;;11.07;;
64598;SDS011;51008;51.504;11.548;2023-10-09T15:57:34;21.73;;;10.70;;
64598;SDS011;51008;51.504;11.548;2023-10-09T16:02:35;18.73;;;10.02;;
64598;SDS011;51008;51.504;11.548;2023-10-09T16:07:36;20.30;;;9.80;;
64598;SDS011;51008;51.504;11.548;2023-10-09T16:12:37;19.45;;;10.40;;
64598;SDS011;51008;51.504;11.548;2023-10-09T16:17:40;20.38;;;10.75;;
64598;SDS011;51008;51.504;11.548;2023-10-09T16:22:42;15.27;;;9.38;;
64598;SDS011;51008;51.504;11.548;2023-10-09T16:27:44;17.45;;;10.20;;
64598;SDS011;51008;51.504;11.548;2023-10-09T16:32:45;17.40;;;9.90;;
64598;SDS011;51008;51.504;11.548;2023-10-09T16:37:47;14.68;;;9.20;;
64598;SDS011;51008;51.504;11.548;2023-10-09T16:42:49;18.05;;;10.63;;
64598;SDS011;51008;51.504;11.548;2023-10-09T16:47:50;17.05;;;10.18;;
64598;SDS011;51008;51.504;11.548;2023-10-09T16:52:51;17.23;;;9.95;;
64598;SDS011;51008;51.504;11.548;2023-10-09T16:57:52;17.95;;;10.05;;
64598;SDS011;51008;51.504;11.548;2023-10-09T17:02:56;17.70;;;11.90;;
64598;SDS011;51008;51.504;11.548;2023-10-09T17:08:01;23.15;;;13.13;;
64598;SDS011;51008;51.504;11.548;2023-10-09T17:13:04;23.23;;;15.50;;
64598;SDS011;51008;51.504;11.548;2023-10-09T17:18:06;29.10;;;17.80;;
64598;SDS011;51008;51.504;11.548;2023-10-09T17:23:07;27.70;;;18.80;;
64598;SDS011;51008;51.504;11.548;2023-10-09T17:28:08;34.10;;;22.52;;
64598;SDS011;51008;51.504;11.548;2023-10-09T17:33:09;34.22;;;22.80;;
64598;SDS011;51008;51.504;11.548;2023-10-09T17:38:09;35.03;;;22.63;;
64598;SDS011;51008;51.504;11.548;2023-10-09T17:43:10;35.58;;;23.45;;
64598;SDS011;51008;51.504;11.548;2023-10-09T17:48:12;37.83;;;25.48;;
64598;SDS011;51008;51.504;11.548;2023-10-09T17:53:13;37.47;;;25.92;;
64598;SDS011;51008;51.504;11.548;2023-10-09T17:58:14;41.35;;;26.38;;
64598;SDS011;51008;51.504;11.548;2023-10-09T18:03:15;42.67;;;29.00;;
64598;SDS011;51008;51.504;11.548;2023-10-09T18:08:17;42.28;;;28.50;;
64598;SDS011;51008;51.504;11.548;2023-10-09T18:13:17;51.22;;;33.03;;
64598;SDS011;51008;51.504;11.548;2023-10-09T18:18:18;49.85;;;32.63;;
64598;SDS011;51008;51.504;11.548;2023-10-09T18:23:19;51.65;;;32.80;;
64598;SDS011;51008;51.504;11.548;2023-10-09T18:28:21;56.47;;;35.85;;
64598;SDS011;51008;51.504;11.548;2023-10-09T18:33:22;55.38;;;37.30;;
64598;SDS011;51008;51.504;11.548;2023-10-09T18:38:24;61.40;;;38.15;;
64598;SDS011;51008;51.504;11.548;2023-10-09T18:43:26;63.85;;;39.50;;
64598;SDS011;51008;51.504;11.548;2023-10-09T18:48:27;57.33;;;38.08;;
64598;SDS011;51008;51.504;11.548;2023-10-09T18:53:29;62.03;;;37.55;;
64598;SDS011;51008;51.504;11.548;2023-10-09T18:58:30;62.08;;;39.80;;
64598;SDS011;51008;51.504;11.548;2023-10-09T19:03:31;63.90;;;40.05;;
64598;SDS011;51008;51.504;11.548;2023-10-09T19:08:32;58.60;;;37.78;;
64598;SDS011;51008;51.504;11.548;2023-10-09T19:13:33;61.58;;;37.72;;
64598;SDS011;51008;51.504;11.548;2023-10-09T19:18:34;56.97;;;37.25;;
64598;SDS011;51008;51.504;11.548;2023-10-09T19:23:39;54.70;;;36.15;;
64598;SDS011;51008;51.504;11.548;2023-10-09T19:28:44;56.63;;;35.90;;
64598;SDS011;51008;51.504;11.548;2023-10-09T19:33:45;54.08;;;35.20;;
64598;SDS011;51008;51.504;11.548;2023-10-09T19:38:46;56.28;;;36.58;;
64598;SDS011;51008;51.504;11.548;2023-10-09T19:43:47;52.75;;;34.75;;
64598;SDS011;51008;51.504;11.548;2023-10-09T19:48:50;51.03;;;34.47;;
64598;SDS011;51008;51.504;11.548;2023-10-09T19:53:51;47.92;;;32.95;;
64598;SDS011;51008;51.504;11.548;2023-10-09T19:58:52;52.80;;;32.63;;
64598;SDS011;51008;51.504;11.548;2023-10-09T20:03:54;48.47;;;31.60;;
64598;SDS011;51008;51.504;11.548;2023-10-09T20:08:55;46.83;;;29.40;;
64598;SDS011;51008;51.504;11.548;2023-10-09T20:13:56;42.30;;;28.00;;
64598;SDS011;51008;51.504;11.548;2023-10-09T20:18:57;36.58;;;26.45;;
64598;SDS011;51008;51.504;11.548;2023-10-09T20:23:58;37.75;;;26.05;;
64598;SDS011;51008;51.504;11.548;2023-10-09T20:28:59;32.70;;;23.33;;
64598;SDS011;51008;51.504;11.548;2023-10-09T20:34:00;29.30;;;20.42;;
64598;SDS011;51008;51.504;11.548;2023-10-09T20:39:01;31.58;;;20.70;;
64598;SDS011;51008;51.504;11.548;2023-10-09T20:44:02;31.77;;;22.20;;
64598;SDS011;51008;51.504;11.548;2023-10-09T20:49:03;30.52;;;21.23;;
64598;SDS011;51008;51.504;11.548;2023-10-09T20:54:04;23.20;;;15.95;;
64598;SDS011;51008;51.504;11.548;2023-10-09T20:59:05;23.98;;;16.60;;
64598;SDS011;51008;51.504;11.548;2023-10-09T21:04:06;17.55;;;11.95;;
64598;SDS011;51008;51.504;11.548;2023-10-09T21:09:07;13.27;;;10.05;;
64598;SDS011;51008;51.504;11.548;2023-10-09T21:14:08;16.10;;;9.05;;
64598;SDS011;51008;51.504;11.548;2023-10-09T21:19:09;14.80;;;7.57;;
64598;SDS011;51008;51.504;11.548;2023-10-09T21:24:10;13.15;;;7.10;;
64598;SDS011;51008;51.504;11.548;2023-10-09T21:29:11;15.20;;;6.53;;
64598;SDS011;51008;51.504;11.548;2023-10-09T21:34:12;7.75;;;5.68;;
64598;SDS011;51008;51.504;11.548;2023-10-09T21:39:13;8.70;;;5.45;;
64598;SDS011;51008;51.504;11.548;2023-10-09T21:44:14;12.35;;;5.47;;
64598;SDS011;51008;51.504;11.548;2023-10-09T21:49:15;10.18;;;4.40;;
64598;SDS011;51008;51.504;11.548;2023-10-09T21:54:16;9.40;;;4.78;;
64598;SDS011;51008;51.504;11.548;2023-10-09T21:59:17;11.02;;;4.63;;
64598;SDS011;51008;51.504;11.548;2023-10-09T22:04:18;8.52;;;3.75;;
64598;SDS011;51008;51.504;11.548;2023-10-09T22:09:19;10.93;;;3.38;;
64598;SDS011;51008;51.504;11.548;2023-10-09T22:14:20;9.88;;;3.28;;
64598;SDS011;51008;51.504;11.548;2023-10-09T22:19:22;9.18;;;3.30;;
64598;SDS011;51008;51.504;11.548;2023-10-09T22:24:23;7.18;;;3.00;;
64598;SDS011;51008;51.504;11.548;2023-10-09T22:29:24;7.45;;;3.00;;
64598;SDS011;51008;51.504;11.548;2023-10-09T22:34:25;5.82;;;3.00;;
64598;SDS011;51008;51.504;11.548;2023-10-09T22:39:26;7.75;;;2.97;;
64598;SDS011;51008;51.504;11.548;2023-10-09T22:44:27;9.35;;;2.63;;
64598;SDS011;51008;51.504;11.548;2023-10-09T22:49:28;6.47;;;2.90;;
64598;SDS011;51008;51.504;11.548;2023-10-09T22:54:29;6.70;;;2.88;;
64598;SDS011;51008;51.504;11.548;2023-10-09T22:59:30;9.82;;;3.13;;
64598;SDS011;51008;51.504;11.548;2023-10-09T23:04:31;8.07;;;2.90;;
64598;SDS011;51008;51.504;11.548;2023-10-09T23:09:32;5.28;;;2.70;;
64598;SDS011;51008;51.504;11.548;2023-10-09T23:14:33;9.27;;;3.20;;
64598;SDS011;51008;51.504;11.548;2023-10-09T23:19:34;7.63;;;3.20;;
64598;SDS011;51008;51.504;11.548;2023-10-09T23:24:35;7.90;;;3.25;;
64598;SDS011;51008;51.504;11.548;2023-10-09T23:29:36;6.75;;;3.03;;
64598;SDS011;51008;51.504;11.548;2023-10-09T23:34:37;6.63;;;3.03;;
64598;SDS011;51008;51.504;11.548;2023-10-09T23:39:38;7.75;;;3.13;;
64598;SDS011;51008;51.504;11.548;2023-10-09T23:44:39;8.43;;;3.17;;
64598;SDS011;51008;51.504;11.548;2023-10-09T23:49:40;6.68;;;2.83;;
64598;SDS011;51008;51.504;11.548;2023-10-09T23:54:41;6.35;;;2.88;;
64598;SDS011;51008;51.504;11.548;2023-10-09T23:59:42;8.98;;;3.40;;
